KCKB/CKB METAR and TAF weather

Enter ICAO airport designator
Station Type Date Time Source
KCKB METAR 2022/05/23 14:53 UTC NOAA

KCKB 231453Z 02006KT 10SM FEW065 16/12 A3027 RMK AO2 RAE31 SLP242 P0000 60000 T01560117 50007


Station Type Date Time Source
KCKB Decoded METAR 2022/05/23 14:53 UTC NOAA

HARRISON/MARION REGIONAL, WV, United States (KCKB) 39-18N 080-13W 360M
May 23, 2022 - 10:53 AM EDT / 2022.05.23 1453 UTC
Wind: from the NNE (020 degrees) at 7 MPH (6 KT):0
Visibility: 10 mile(s):0
Sky conditions: mostly clear
Precipitation last hour: A trace
Temperature: 60.1 F (15.6 C)
Dew Point: 53.1 F (11.7 C)
Relative Humidity: 77%
Pressure (altimeter): 30.27 in. Hg (1025 hPa)
Pressure tendency: 0.02 inches (0.7 hPa) higher than three hours ago
ob: KCKB 231453Z 02006KT 10SM FEW065 16/12 A3027 RMK AO2 RAE31 SLP242 P0000 60000 T01560117 50007
cycle: 15

Station Type Date Time Source
KCKB TAF 2022/05/23 14:59 UTC NOAA

TAF
AMD KCKB 231359Z 2314/2412 VRB05KT P6SM OVC050
TEMPO 2314/2318 -SHRA OVC035
FM232000 03006KT P6SM OVC030
FM240500 00000KT 6SM BR BKN035

Example: see airport list